createdAt,value
2019-02-02T00:00:35.964Z,68.80
2019-02-02T00:03:06.098Z,71.30
2019-02-02T00:05:35.741Z,67.43
2019-02-02T00:08:06.654Z,60.00
2019-02-02T00:10:36.670Z,66.80
2019-02-02T00:13:06.530Z,64.03
2019-02-02T00:15:42.646Z,62.03
2019-02-02T00:18:14.751Z,61.17
2019-02-02T00:20:45.194Z,61.17
2019-02-02T00:23:16.147Z,59.80
2019-02-02T00:25:48.291Z,63.20
2019-02-02T00:28:19.003Z,69.33
2019-02-02T00:30:48.956Z,63.70
2019-02-02T00:33:18.821Z,61.60
2019-02-02T00:39:00.913Z,66.33
2019-02-02T00:41:30.762Z,63.53
2019-02-02T00:44:00.479Z,60.50
2019-02-02T00:46:30.159Z,58.87
2019-02-02T00:48:59.967Z,73.77
2019-02-02T00:51:29.773Z,69.17
2019-02-02T00:53:59.788Z,72.40
2019-02-02T00:56:29.427Z,69.90
2019-02-02T00:58:59.040Z,69.27
2019-02-02T01:01:28.763Z,77.00
2019-02-02T01:03:58.488Z,71.33
2019-02-02T01:06:28.134Z,75.43
2019-02-02T01:08:57.929Z,69.47
2019-02-02T01:11:28.040Z,69.47
2019-02-02T01:13:57.713Z,69.43
2019-02-02T01:16:27.290Z,68.27
2019-02-02T01:18:57.058Z,70.17
2019-02-02T01:21:26.746Z,68.97
2019-02-02T01:23:56.418Z,69.43
2019-02-02T01:26:26.026Z,74.17
2019-02-02T01:28:55.978Z,70.80
2019-02-02T01:31:26.140Z,69.90
2019-02-02T01:33:55.850Z,71.93
2019-02-02T01:36:25.779Z,72.00
2019-02-02T01:38:55.428Z,77.33
2019-02-02T01:41:25.358Z,69.23
2019-02-02T01:43:55.013Z,67.63
2019-02-02T01:46:24.562Z,61.37
2019-02-02T01:48:54.227Z,75.63
2019-02-02T01:51:24.189Z,76.70
2019-02-02T01:53:53.785Z,76.00
2019-02-02T01:56:23.766Z,68.83
2019-02-02T01:58:53.614Z,71.00
2019-02-02T02:01:23.559Z,68.27
2019-02-02T02:03:53.533Z,70.60
2019-02-02T02:06:23.654Z,69.77
2019-02-02T02:08:53.293Z,78.27
2019-02-02T02:11:23.676Z,74.00
2019-02-02T02:13:53.921Z,76.83
2019-02-02T02:16:23.867Z,75.03
2019-02-02T02:18:54.022Z,81.13
2019-02-02T02:21:23.935Z,72.23
2019-02-02T02:23:54.027Z,68.57
2019-02-02T02:26:24.047Z,73.73
2019-02-02T02:28:54.309Z,81.40
2019-02-02T02:31:24.735Z,75.50
2019-02-02T02:33:54.853Z,80.13
2019-02-02T02:36:24.944Z,82.10
2019-02-02T02:38:55.437Z,80.10
2019-02-02T02:41:27.026Z,80.00
2019-02-02T02:43:56.847Z,81.10
2019-02-02T02:46:26.933Z,75.73
2019-02-02T02:48:56.724Z,79.43
2019-02-02T02:51:26.662Z,76.83
2019-02-02T02:53:56.687Z,82.10
2019-02-02T02:56:26.559Z,89.00
2019-02-02T02:58:56.390Z,82.53
2019-02-02T03:01:26.574Z,82.67
2019-02-02T03:03:56.505Z,84.33
2019-02-02T03:06:26.341Z,87.00
2019-02-02T03:08:56.208Z,82.50
2019-02-02T03:11:26.164Z,86.53
2019-02-02T03:13:56.349Z,77.80
2019-02-02T03:16:26.559Z,85.83
2019-02-02T03:18:56.494Z,88.90
2019-02-02T03:21:26.395Z,82.97
2019-02-02T03:23:56.570Z,80.77
2019-02-02T03:26:26.120Z,91.87
2019-02-02T03:28:56.240Z,75.77
2019-02-02T03:31:26.446Z,90.97
2019-02-02T03:33:56.766Z,83.90
2019-02-02T03:36:26.711Z,83.37
2019-02-02T03:38:57.070Z,85.00
2019-02-02T03:41:28.824Z,89.00
2019-02-02T03:44:01.223Z,92.37
2019-02-02T03:46:31.218Z,85.67
2019-02-02T03:49:01.726Z,92.67
2019-02-02T03:51:31.742Z,86.03
2019-02-02T03:54:08.852Z,89.43
2019-02-02T03:56:33.502Z,91.47
2019-02-02T03:59:06.580Z,81.23
2019-02-02T04:01:35.247Z,79.57
2019-02-02T04:04:05.265Z,86.17
2019-02-02T04:06:35.299Z,87.03
2019-02-02T04:09:07.690Z,84.37
2019-02-02T04:11:38.006Z,82.37
2019-02-02T04:14:08.211Z,85.67
2019-02-02T04:16:38.901Z,90.60
2019-02-02T04:19:08.745Z,81.63
2019-02-02T04:21:38.397Z,87.73
2019-02-02T04:24:08.662Z,84.87
2019-02-02T04:26:38.846Z,82.57
2019-02-02T04:29:17.590Z,85.00
2019-02-02T04:31:40.240Z,82.60
2019-02-02T04:34:10.160Z,87.33
2019-02-02T04:36:40.213Z,93.37
2019-02-02T04:39:10.268Z,81.87
2019-02-02T04:41:39.807Z,80.07
2019-02-02T04:44:09.712Z,83.27
2019-02-02T04:46:41.476Z,80.07
2019-02-02T04:49:11.541Z,71.50
2019-02-02T04:51:41.150Z,69.07
2019-02-02T04:54:10.720Z,63.87
2019-02-02T04:56:40.807Z,61.47
2019-02-02T04:59:10.685Z,61.73
2019-02-02T05:01:40.550Z,54.80
2019-02-02T05:04:10.224Z,47.13
2019-02-02T05:06:40.436Z,56.23
2019-02-02T05:09:10.253Z,51.90
2019-02-02T05:11:40.763Z,53.23
2019-02-02T05:14:10.454Z,45.60
2019-02-02T05:16:41.537Z,47.20
2019-02-02T05:19:11.770Z,50.80
2019-02-02T05:21:41.698Z,42.90
2019-02-02T05:24:11.963Z,42.63
2019-02-02T05:26:41.847Z,40.67
2019-02-02T05:29:11.582Z,43.93
2019-02-02T05:31:41.880Z,43.33
2019-02-02T05:34:14.747Z,41.67
2019-02-02T05:36:45.227Z,42.60
2019-02-02T05:39:15.101Z,38.20
2019-02-02T05:41:46.231Z,35.00
2019-02-02T05:44:16.208Z,38.77
2019-02-02T05:46:46.413Z,36.67
2019-02-02T05:49:16.236Z,38.43
2019-02-02T05:51:46.259Z,38.33
2019-02-02T05:54:16.539Z,35.37
2019-02-02T05:56:46.074Z,30.87
2019-02-02T05:59:16.127Z,31.37
2019-02-02T06:01:47.699Z,31.90
2019-02-02T06:04:19.086Z,29.67
2019-02-02T06:06:49.577Z,26.37
2019-02-02T06:09:19.313Z,25.37
2019-02-02T06:11:49.449Z,26.87
2019-02-02T06:14:20.494Z,23.07
2019-02-02T06:16:50.137Z,28.93
2019-02-02T06:19:20.026Z,24.23
2019-02-02T06:21:50.498Z,25.43
2019-02-02T06:24:22.273Z,26.47
2019-02-02T06:26:53.243Z,26.97
2019-02-02T06:29:23.639Z,25.07
2019-02-02T06:31:54.017Z,23.83
2019-02-02T06:34:25.275Z,25.73
2019-02-02T06:36:55.330Z,23.67
2019-02-02T06:39:25.331Z,28.67
2019-02-02T06:41:55.158Z,25.90
2019-02-02T06:44:25.514Z,23.77
2019-02-02T06:46:56.114Z,28.33
2019-02-02T06:49:27.107Z,24.20
2019-02-02T06:51:57.651Z,26.77
2019-02-02T06:54:31.691Z,24.17
2019-02-02T06:57:00.967Z,25.73
2019-02-02T06:59:31.011Z,24.23
2019-02-02T07:02:00.914Z,25.20
2019-02-02T07:04:30.368Z,23.07
2019-02-02T07:07:00.079Z,24.27
2019-02-02T07:09:29.900Z,23.00
2019-02-02T07:11:59.578Z,25.73
2019-02-02T07:14:29.236Z,25.77
2019-02-02T07:16:58.746Z,27.63
2019-02-02T07:19:29.223Z,26.30
2019-02-02T07:21:58.990Z,28.60
2019-02-02T07:24:28.575Z,24.30
2019-02-02T07:26:58.221Z,22.87
2019-02-02T07:29:27.965Z,25.60
2019-02-02T07:31:57.626Z,25.77
2019-02-02T07:34:27.202Z,24.17
2019-02-02T07:36:56.767Z,19.50
2019-02-02T07:39:26.385Z,23.40
2019-02-02T07:41:55.923Z,22.37
2019-02-02T07:44:25.500Z,22.23
2019-02-02T07:46:55.265Z,24.30
2019-02-02T07:49:24.889Z,21.37
2019-02-02T07:51:54.407Z,20.93
2019-02-02T07:54:23.948Z,20.77
2019-02-02T07:56:53.509Z,19.90
2019-02-02T07:59:23.102Z,22.57
2019-02-02T08:01:52.748Z,21.77
2019-02-02T08:04:22.520Z,22.53
2019-02-02T08:06:52.033Z,21.23
2019-02-02T08:09:21.587Z,19.63
2019-02-02T08:11:51.357Z,18.13
2019-02-02T08:14:21.223Z,20.23
2019-02-02T08:16:52.642Z,21.40
2019-02-02T08:19:25.524Z,21.77
2019-02-02T08:21:55.506Z,19.67
2019-02-02T08:24:25.361Z,22.20
2019-02-02T08:26:55.197Z,17.37
2019-02-02T08:29:24.940Z,18.07
2019-02-02T08:31:54.677Z,17.90
2019-02-02T08:34:24.384Z,21.50
2019-02-02T08:36:53.990Z,17.60
2019-02-02T08:39:29.082Z,16.53
2019-02-02T08:41:56.030Z,17.13
2019-02-02T08:44:25.705Z,17.23
2019-02-02T08:46:55.262Z,17.70
2019-02-02T08:49:25.048Z,19.27
2019-02-02T08:51:54.696Z,17.53
2019-02-02T08:54:24.276Z,17.10
2019-02-02T08:56:53.986Z,14.87
2019-02-02T08:59:23.978Z,18.47
2019-02-02T09:01:53.798Z,15.23
2019-02-02T09:04:23.508Z,15.77
2019-02-02T09:06:53.157Z,16.47
2019-02-02T09:09:22.728Z,13.57
2019-02-02T09:11:52.422Z,16.87
2019-02-02T09:14:22.021Z,14.67
2019-02-02T09:16:51.593Z,15.97
2019-02-02T09:19:21.153Z,16.57
2019-02-02T09:21:51.094Z,15.03
2019-02-02T09:24:20.959Z,17.93
2019-02-02T09:26:50.602Z,15.43
2019-02-02T09:29:20.421Z,14.80
2019-02-02T09:31:50.081Z,13.93
2019-02-02T09:34:19.751Z,14.20
2019-02-02T09:36:49.528Z,14.47
2019-02-02T09:39:19.075Z,15.73
2019-02-02T09:41:48.573Z,17.50
2019-02-02T09:44:18.554Z,15.90
2019-02-02T09:46:48.051Z,16.00
2019-02-02T09:49:17.605Z,17.07
2019-02-02T09:51:47.403Z,16.90
2019-02-02T09:54:26.357Z,16.80
2019-02-02T09:56:48.359Z,17.27
2019-02-02T09:59:18.035Z,16.90
2019-02-02T10:01:47.546Z,17.07
2019-02-02T10:04:17.514Z,17.27
2019-02-02T10:06:47.169Z,18.43
2019-02-02T10:09:16.757Z,16.20
2019-02-02T10:11:47.542Z,21.43
2019-02-02T10:14:17.383Z,21.40
2019-02-02T10:16:47.718Z,17.07
2019-02-02T10:19:17.510Z,17.10
2019-02-02T10:21:49.677Z,16.27
2019-02-02T10:24:18.879Z,16.33
2019-02-02T10:26:48.585Z,17.67
2019-02-02T10:29:18.299Z,18.87
2019-02-02T10:31:48.337Z,17.60
2019-02-02T10:34:18.022Z,17.67
2019-02-02T10:36:47.741Z,16.23
2019-02-02T10:39:17.634Z,16.17
2019-02-02T10:41:47.595Z,15.63
2019-02-02T10:44:17.788Z,17.17
2019-02-02T10:46:47.749Z,15.93
2019-02-02T10:49:17.876Z,15.67
2019-02-02T10:51:47.419Z,14.83
2019-02-02T10:54:17.042Z,16.90
2019-02-02T10:56:46.742Z,15.50
2019-02-02T10:59:16.351Z,17.77
2019-02-02T11:01:51.260Z,16.67
2019-02-02T11:04:17.126Z,16.20
2019-02-02T11:06:47.041Z,16.60
2019-02-02T11:09:16.656Z,17.33
2019-02-02T11:11:46.626Z,18.07
2019-02-02T11:14:16.152Z,18.47
2019-02-02T11:16:45.813Z,18.83
2019-02-02T11:19:15.522Z,21.77
2019-02-02T11:21:45.369Z,19.07
2019-02-02T11:24:15.443Z,19.20
2019-02-02T11:26:45.222Z,21.87
2019-02-02T11:29:14.802Z,19.13
2019-02-02T11:31:44.476Z,21.43
2019-02-02T11:34:14.344Z,20.60
2019-02-02T11:36:44.050Z,19.77
2019-02-02T11:39:13.825Z,20.80
2019-02-02T11:41:43.501Z,19.10
2019-02-02T11:44:13.149Z,18.50
2019-02-02T11:46:42.888Z,21.03
2019-02-02T11:49:12.551Z,21.63
2019-02-02T11:51:42.343Z,19.23
2019-02-02T11:54:12.022Z,19.93
2019-02-02T11:56:41.584Z,19.97
2019-02-02T11:59:11.225Z,21.33
2019-02-02T12:01:40.830Z,22.83
2019-02-02T12:04:10.654Z,27.20
2019-02-02T12:06:40.210Z,23.60
2019-02-02T12:09:09.868Z,23.17
2019-02-02T12:11:39.368Z,24.77
2019-02-02T12:14:09.011Z,23.50
2019-02-02T12:16:38.760Z,22.63
2019-02-02T12:19:08.494Z,24.03
2019-02-02T12:21:38.337Z,29.10
2019-02-02T12:24:15.832Z,28.87
2019-02-02T12:26:39.513Z,29.27
2019-02-02T12:29:09.322Z,30.80
2019-02-02T12:31:39.619Z,27.83
2019-02-02T12:34:10.528Z,28.77
2019-02-02T12:36:40.094Z,25.77
2019-02-02T12:39:11.769Z,23.67
2019-02-02T12:41:41.434Z,23.33
2019-02-02T12:44:11.181Z,27.30
2019-02-02T12:46:40.748Z,22.20
2019-02-02T12:49:10.381Z,23.07
2019-02-02T12:51:40.681Z,21.97
2019-02-02T12:54:10.341Z,23.07
2019-02-02T12:56:40.229Z,21.40
2019-02-02T12:59:10.089Z,22.13
2019-02-02T13:01:39.609Z,19.37
2019-02-02T13:04:09.422Z,22.90
2019-02-02T13:06:39.136Z,25.53
2019-02-02T13:09:10.455Z,24.60
2019-02-02T13:11:40.790Z,26.50
2019-02-02T13:14:10.498Z,22.30
2019-02-02T13:16:40.062Z,26.53
2019-02-02T13:19:10.079Z,26.53
2019-02-02T13:21:39.415Z,30.40
2019-02-02T13:24:09.173Z,29.17
2019-02-02T13:26:38.562Z,25.90
2019-02-02T13:29:07.995Z,27.70
2019-02-02T13:31:37.580Z,24.77
2019-02-02T13:34:07.063Z,28.63
2019-02-02T13:36:36.526Z,23.80
2019-02-02T13:39:09.533Z,23.10
2019-02-02T13:41:38.971Z,22.70
2019-02-02T13:44:08.314Z,18.97
2019-02-02T13:46:37.875Z,19.33
2019-02-02T13:49:07.491Z,20.00
2019-02-02T13:51:36.924Z,20.57
2019-02-02T13:54:06.733Z,18.90
2019-02-02T13:56:36.409Z,21.87
2019-02-02T13:59:06.131Z,23.50
2019-02-02T14:01:42.069Z,22.13
2019-02-02T14:04:07.063Z,22.33
2019-02-02T14:06:36.502Z,22.37
2019-02-02T14:09:08.971Z,24.67
2019-02-02T14:11:38.759Z,27.73
2019-02-02T14:14:08.205Z,23.63
2019-02-02T14:16:37.634Z,24.00
2019-02-02T14:19:07.213Z,22.17
2019-02-02T14:21:37.192Z,21.43
2019-02-02T14:24:06.808Z,20.20
2019-02-02T14:26:36.362Z,17.20
2019-02-02T14:29:05.971Z,16.73
2019-02-02T14:31:35.491Z,18.20
2019-02-02T14:34:05.265Z,14.60
2019-02-02T14:36:35.080Z,18.83
2019-02-02T14:39:07.285Z,19.20
2019-02-02T14:41:37.078Z,19.93
2019-02-02T14:44:06.630Z,21.70
2019-02-02T14:46:36.454Z,20.33
2019-02-02T14:49:08.731Z,10.87
2019-02-02T14:51:38.360Z,9.63
2019-02-02T14:54:08.181Z,6.50
2019-02-02T14:56:37.995Z,9.20
2019-02-02T14:59:07.735Z,7.40
2019-02-02T15:01:37.305Z,9.27
2019-02-02T15:04:07.264Z,6.17
2019-02-02T15:06:36.902Z,9.40
2019-02-02T15:09:07.731Z,7.13
2019-02-02T15:11:37.318Z,10.53
2019-02-02T15:14:07.075Z,8.37
2019-02-02T15:16:36.737Z,11.57
2019-02-02T15:19:06.570Z,10.77
2019-02-02T15:21:36.521Z,10.77
2019-02-02T15:24:07.213Z,10.17
2019-02-02T15:26:37.426Z,11.83
2019-02-02T15:29:07.187Z,12.20
2019-02-02T15:31:37.322Z,8.23
2019-02-02T15:34:07.145Z,10.47
2019-02-02T15:36:36.812Z,10.00
2019-02-02T15:39:09.791Z,10.77
2019-02-02T15:41:39.263Z,12.63
2019-02-02T15:44:08.954Z,12.53
2019-02-02T15:46:48.780Z,12.20
2019-02-02T15:49:10.309Z,13.67
2019-02-02T15:51:40.541Z,12.27
2019-02-02T15:54:10.311Z,16.53
2019-02-02T15:56:39.920Z,13.23
2019-02-02T15:59:09.610Z,15.77
2019-02-02T16:01:39.280Z,15.37
2019-02-02T16:04:08.865Z,14.67
2019-02-02T16:06:38.595Z,15.37
2019-02-02T16:09:10.946Z,18.77
2019-02-02T16:11:40.446Z,16.20
2019-02-02T16:14:10.467Z,20.37
2019-02-02T16:16:40.000Z,14.50
2019-02-02T16:19:10.116Z,17.87
2019-02-02T16:21:41.528Z,22.33
2019-02-02T16:24:12.217Z,20.73
2019-02-02T16:26:44.482Z,21.87
2019-02-02T16:29:15.479Z,24.13
2019-02-02T16:31:45.054Z,23.27
2019-02-02T16:34:15.687Z,21.23
2019-02-02T16:36:45.438Z,22.77
2019-02-02T16:39:15.260Z,17.73
2019-02-02T16:41:45.164Z,16.60
2019-02-02T16:44:15.009Z,16.83
2019-02-02T16:46:44.782Z,12.93
2019-02-02T16:49:14.281Z,20.77
2019-02-02T16:51:43.985Z,14.83
2019-02-02T16:54:13.693Z,15.27
2019-02-02T16:56:43.613Z,14.70
2019-02-02T16:59:13.117Z,14.00
2019-02-02T17:01:43.034Z,15.57
2019-02-02T17:04:15.840Z,16.50
2019-02-02T17:06:48.453Z,19.07
2019-02-02T17:09:18.970Z,14.77
2019-02-02T17:11:48.664Z,18.67
2019-02-02T17:14:18.684Z,19.17
2019-02-02T17:16:48.478Z,17.30
2019-02-02T17:19:19.341Z,14.13
2019-02-02T17:21:49.108Z,14.17
2019-02-02T17:24:18.791Z,15.13
2019-02-02T17:26:48.518Z,12.43
2019-02-02T17:29:18.242Z,15.47
2019-02-02T17:31:47.671Z,12.50
2019-02-02T17:34:26.866Z,25.57
2019-02-02T17:36:48.614Z,13.20
2019-02-02T17:39:18.042Z,14.73
2019-02-02T17:41:47.505Z,17.03
2019-02-02T17:44:17.105Z,16.73
2019-02-02T17:46:46.799Z,13.60
2019-02-02T17:49:16.596Z,16.70
2019-02-02T17:51:46.220Z,20.70
2019-02-02T17:54:17.628Z,16.43
2019-02-02T17:56:47.890Z,15.77
2019-02-02T17:59:18.429Z,14.67
2019-02-02T18:01:48.837Z,15.17
2019-02-02T18:04:20.642Z,17.87
2019-02-02T18:06:51.191Z,19.40
2019-02-02T18:09:21.811Z,17.37
2019-02-02T18:11:52.995Z,17.53
2019-02-02T18:14:24.509Z,28.53
2019-02-02T18:16:55.148Z,21.97
2019-02-02T18:19:26.148Z,21.67
2019-02-02T18:21:57.900Z,16.53
2019-02-02T18:24:29.424Z,19.43
2019-02-02T18:27:01.635Z,21.90
2019-02-02T18:29:31.881Z,17.33
2019-02-02T18:32:12.906Z,14.23
2019-02-02T18:34:36.750Z,21.80
2019-02-02T18:37:08.079Z,21.73
2019-02-02T18:39:43.384Z,24.23
2019-02-02T18:42:15.744Z,20.23
2019-02-02T18:44:46.610Z,30.27
2019-02-02T18:47:18.301Z,13.60
2019-02-02T18:49:49.394Z,17.97
2019-02-02T18:52:20.521Z,14.43
2019-02-02T18:54:50.594Z,15.47
2019-02-02T18:57:25.143Z,14.57
2019-02-02T18:59:58.331Z,17.90
2019-02-02T19:02:34.930Z,15.83
2019-02-02T19:05:07.454Z,16.17
2019-02-02T19:07:38.505Z,17.47
2019-02-02T19:10:20.040Z,19.03
2019-02-02T19:12:52.031Z,15.37
2019-02-02T19:15:28.034Z,15.17
2019-02-02T19:17:58.262Z,17.03
2019-02-02T19:20:33.258Z,16.70
2019-02-02T19:23:03.376Z,17.03
2019-02-02T19:25:37.648Z,17.00
2019-02-02T19:28:11.966Z,19.07
2019-02-02T19:30:42.885Z,18.33
2019-02-02T19:33:17.302Z,18.17
2019-02-02T19:35:52.983Z,18.67
2019-02-02T19:38:23.338Z,19.23
2019-02-02T19:40:53.715Z,17.70
2019-02-02T19:43:24.730Z,18.03
2019-02-02T19:45:55.374Z,18.37
2019-02-02T19:48:28.236Z,19.53
2019-02-02T19:50:59.464Z,16.13
2019-02-02T19:53:31.914Z,18.93
2019-02-02T19:56:05.243Z,21.03
2019-02-02T19:58:39.376Z,22.50
2019-02-02T20:01:11.453Z,19.67
2019-02-02T20:03:43.111Z,19.77
2019-02-02T20:06:14.086Z,20.20
2019-02-02T20:08:44.933Z,19.87
2019-02-02T20:11:15.301Z,19.93
2019-02-02T20:13:47.330Z,15.60
2019-02-02T20:16:20.966Z,19.10
2019-02-02T20:18:52.675Z,23.93
2019-02-02T20:21:23.798Z,16.50
2019-02-02T20:23:54.496Z,18.03
2019-02-02T20:26:25.839Z,16.93
2019-02-02T20:28:56.779Z,16.80
2019-02-02T20:31:28.360Z,18.87
2019-02-02T20:34:00.524Z,19.03
2019-02-02T20:36:32.248Z,15.73
2019-02-02T20:39:03.792Z,10.67
2019-02-02T20:41:35.060Z,10.33
2019-02-02T20:44:05.446Z,17.10
2019-02-02T20:46:35.296Z,15.43
2019-02-02T20:49:07.964Z,12.43
2019-02-02T20:51:37.321Z,14.53
2019-02-02T20:54:07.248Z,11.43
2019-02-02T20:56:37.037Z,16.20
2019-02-02T20:59:07.289Z,12.67
2019-02-02T21:01:37.408Z,17.27
2019-02-02T21:04:07.759Z,30.67
2019-02-02T21:06:37.334Z,20.90
2019-02-02T21:09:08.657Z,20.17
2019-02-02T21:11:39.583Z,15.63
2019-02-02T21:14:09.568Z,17.57
2019-02-02T21:16:39.901Z,19.50
2019-02-02T21:19:09.954Z,19.87
2019-02-02T21:21:40.087Z,21.57
2019-02-02T21:24:09.563Z,17.90
2019-02-02T21:26:39.143Z,21.20
2019-02-02T21:29:08.779Z,19.33
2019-02-02T21:31:38.377Z,13.90
2019-02-02T21:34:08.346Z,12.23
2019-02-02T21:36:38.109Z,12.50
2019-02-02T21:39:09.194Z,11.97
2019-02-02T21:41:40.859Z,13.43
2019-02-02T21:44:10.874Z,14.83
2019-02-02T21:46:40.825Z,11.43
2019-02-02T21:49:10.697Z,11.63
2019-02-02T21:51:40.202Z,11.13
2019-02-02T21:54:10.057Z,14.80
2019-02-02T21:56:40.099Z,12.57
2019-02-02T21:59:09.952Z,14.07
2019-02-02T22:01:40.032Z,12.37
2019-02-02T22:04:09.723Z,13.57
2019-02-02T22:06:40.510Z,11.30
2019-02-02T22:09:10.136Z,13.60
2019-02-02T22:11:39.643Z,12.70
2019-02-02T22:14:09.059Z,12.40
2019-02-02T22:16:38.685Z,12.70
2019-02-02T22:19:08.207Z,12.57
2019-02-02T22:21:37.960Z,13.47
2019-02-02T22:24:07.994Z,13.27
2019-02-02T22:26:38.190Z,12.93
2019-02-02T22:29:08.807Z,13.17
2019-02-02T22:31:39.224Z,14.20
2019-02-02T22:34:08.824Z,12.70
2019-02-02T22:36:38.646Z,14.70
2019-02-02T22:39:09.600Z,14.07
2019-02-02T22:41:39.289Z,13.93
2019-02-02T22:44:09.380Z,17.27
2019-02-02T22:46:39.620Z,12.00
2019-02-02T22:49:09.162Z,15.07
2019-02-02T22:51:39.064Z,10.47
2019-02-02T22:54:08.968Z,16.13
2019-02-02T22:56:39.054Z,12.83
2019-02-02T22:59:08.722Z,11.57
2019-02-02T23:01:45.100Z,14.27
2019-02-02T23:04:45.903Z,10.97
2019-02-02T23:07:39.125Z,10.23
2019-02-02T23:10:48.641Z,11.17
2019-02-02T23:13:52.298Z,9.57
2019-02-02T23:16:29.245Z,10.97
2019-02-02T23:18:59.808Z,10.60
2019-02-02T23:21:30.964Z,10.30
2019-02-02T23:24:00.860Z,13.83
2019-02-02T23:26:30.941Z,12.37
2019-02-02T23:29:01.429Z,12.00
2019-02-02T23:31:31.392Z,12.90
2019-02-02T23:34:01.436Z,11.30
2019-02-02T23:36:30.935Z,15.43
2019-02-02T23:39:00.903Z,14.07
2019-02-02T23:41:30.721Z,13.53
2019-02-02T23:44:00.368Z,14.93
2019-02-02T23:46:30.266Z,13.90
2019-02-02T23:49:00.864Z,10.87
2019-02-02T23:51:31.338Z,15.63
2019-02-02T23:54:01.022Z,15.10
2019-02-02T23:56:31.310Z,12.27
2019-02-02T23:59:01.014Z,12.77
